createdAt,value
2019-04-04T00:00:41.859Z,953.23
2019-04-04T00:03:09.199Z,953.20
2019-04-04T00:05:35.502Z,953.24
2019-04-04T00:08:01.853Z,953.25
2019-04-04T00:10:28.177Z,953.18
2019-04-04T00:12:54.607Z,953.19
2019-04-04T00:15:20.947Z,953.15
2019-04-04T00:17:47.273Z,953.12
2019-04-04T00:20:13.599Z,953.12
2019-04-04T00:22:39.933Z,953.00
2019-04-04T00:25:09.564Z,953.01
2019-04-04T00:27:32.589Z,952.97
2019-04-04T00:29:58.891Z,953.02
2019-04-04T00:32:25.224Z,953.04
2019-04-04T00:34:51.570Z,953.02
2019-04-04T00:37:17.907Z,952.98
2019-04-04T00:39:44.214Z,953.05
2019-04-04T00:42:10.543Z,952.96
2019-04-04T00:44:36.868Z,953.04
2019-04-04T00:47:03.218Z,953.02
2019-04-04T00:49:29.572Z,952.96
2019-04-04T00:51:55.995Z,952.99
2019-04-04T00:54:22.313Z,952.97
2019-04-04T00:56:48.838Z,952.96
2019-04-04T00:59:14.996Z,952.97
2019-04-04T01:01:41.318Z,952.92
2019-04-04T01:04:07.635Z,952.94
2019-04-04T01:06:34.362Z,952.93
2019-04-04T01:09:00.255Z,952.91
2019-04-04T01:11:26.566Z,952.95
2019-04-04T01:13:52.896Z,952.87
2019-04-04T01:16:19.227Z,952.93
2019-04-04T01:18:45.550Z,952.95
2019-04-04T01:21:11.861Z,952.97
2019-04-04T01:23:38.259Z,952.96
2019-04-04T01:26:04.566Z,952.93
2019-04-04T01:28:30.894Z,952.87
2019-04-04T01:30:57.233Z,952.88
2019-04-04T01:33:23.571Z,952.91
2019-04-04T01:35:49.900Z,952.89
2019-04-04T01:38:16.234Z,952.89
2019-04-04T01:40:42.539Z,952.94
2019-04-04T01:43:09.810Z,952.88
2019-04-04T01:45:35.267Z,952.90
2019-04-04T01:48:01.582Z,952.80
2019-04-04T01:50:27.891Z,952.80
2019-04-04T01:52:54.201Z,952.82
2019-04-04T01:55:20.545Z,952.77
2019-04-04T01:57:46.938Z,952.78
2019-04-04T02:00:15.104Z,952.88
2019-04-04T02:02:39.600Z,952.78
2019-04-04T02:05:05.968Z,952.81
2019-04-04T02:07:32.317Z,952.79
2019-04-04T02:09:58.617Z,952.79
2019-04-04T02:12:24.943Z,952.77
2019-04-04T02:14:51.284Z,952.76
2019-04-04T02:17:17.589Z,952.71
2019-04-04T02:19:43.971Z,952.77
2019-04-04T02:22:10.225Z,952.73
2019-04-04T02:24:36.530Z,952.64
2019-04-04T02:27:02.885Z,952.70
2019-04-04T02:29:29.212Z,952.73
2019-04-04T02:31:55.507Z,952.68
2019-04-04T02:34:21.828Z,952.66
2019-04-04T02:36:49.178Z,952.66
2019-04-04T02:39:14.566Z,952.65
2019-04-04T02:41:40.903Z,952.68
2019-04-04T02:44:07.221Z,952.58
2019-04-04T02:46:33.529Z,952.68
2019-04-04T02:48:59.869Z,952.62
2019-04-04T02:51:26.206Z,952.66
2019-04-04T02:53:53.180Z,952.60
2019-04-04T02:56:18.862Z,952.58
2019-04-04T02:58:46.386Z,952.64
2019-04-04T03:01:11.512Z,952.58
2019-04-04T03:03:41.170Z,952.62
2019-04-04T03:06:04.130Z,952.61
2019-04-04T03:08:30.502Z,952.57
2019-04-04T03:10:56.859Z,952.60
2019-04-04T03:13:23.141Z,952.58
2019-04-04T03:15:49.498Z,952.56
2019-04-04T03:18:15.810Z,952.57
2019-04-04T03:20:42.182Z,952.57
2019-04-04T03:23:08.623Z,952.53
2019-04-04T03:25:34.961Z,952.46
2019-04-04T03:28:01.272Z,952.49
2019-04-04T03:30:27.605Z,952.55
2019-04-04T03:32:55.053Z,952.58
2019-04-04T03:35:25.693Z,952.62
2019-04-04T03:37:46.547Z,952.57
2019-04-04T03:40:12.875Z,952.63
2019-04-04T03:42:43.932Z,952.62
2019-04-04T03:45:05.490Z,952.57
2019-04-04T03:47:31.803Z,952.56
2019-04-04T03:49:58.135Z,952.59
2019-04-04T03:52:24.449Z,952.57
2019-04-04T03:54:54.985Z,952.62
2019-04-04T03:57:17.098Z,952.66
2019-04-04T03:59:43.435Z,952.64
2019-04-04T04:02:09.755Z,952.72
2019-04-04T04:04:36.096Z,952.71
2019-04-04T04:07:02.524Z,952.78
2019-04-04T04:09:29.111Z,952.77
2019-04-04T04:11:55.457Z,952.79
2019-04-04T04:14:22.658Z,952.82
2019-04-04T04:16:48.064Z,952.90
2019-04-04T04:19:14.391Z,952.94
2019-04-04T04:21:42.836Z,953.01
2019-04-04T04:24:07.105Z,952.97
2019-04-04T04:26:33.444Z,953.01
2019-04-04T04:28:59.751Z,952.94
2019-04-04T04:31:26.085Z,952.99
2019-04-04T04:33:52.379Z,952.95
2019-04-04T04:36:18.731Z,953.02
2019-04-04T04:38:45.040Z,953.08
2019-04-04T04:41:11.412Z,953.06
2019-04-04T04:43:37.745Z,953.03
2019-04-04T04:46:04.105Z,952.98
2019-04-04T04:48:31.772Z,952.93
2019-04-04T04:50:56.826Z,952.92
2019-04-04T04:53:23.146Z,952.97
2019-04-04T04:55:49.513Z,952.94
2019-04-04T04:58:15.852Z,952.96
2019-04-04T05:00:42.174Z,952.96
2019-04-04T05:03:08.494Z,952.96
2019-04-04T05:05:34.943Z,952.91
2019-04-04T05:08:01.237Z,952.95
2019-04-04T05:10:27.585Z,952.97
2019-04-04T05:12:53.954Z,952.95
2019-04-04T05:15:21.442Z,952.96
2019-04-04T05:17:46.547Z,952.95
2019-04-04T05:20:12.857Z,953.02
2019-04-04T05:22:40.035Z,952.97
2019-04-04T05:25:08.303Z,952.98
2019-04-04T05:27:31.836Z,952.89
2019-04-04T05:29:58.148Z,952.98
2019-04-04T05:32:24.491Z,953.12
2019-04-04T05:34:50.828Z,953.05
2019-04-04T05:37:17.123Z,953.05
2019-04-04T05:39:43.567Z,952.92
2019-04-04T05:42:09.872Z,952.92
2019-04-04T05:44:36.505Z,953.02
2019-04-04T05:47:02.883Z,952.94
2019-04-04T05:49:29.212Z,953.01
2019-04-04T05:51:55.529Z,952.93
2019-04-04T05:54:21.885Z,952.85
2019-04-04T05:56:48.970Z,952.83
2019-04-04T05:59:14.527Z,952.87
2019-04-04T06:01:40.937Z,952.92
2019-04-04T06:04:07.194Z,952.87
2019-04-04T06:06:34.200Z,952.91
2019-04-04T06:08:59.943Z,952.96
2019-04-04T06:11:26.276Z,952.95
2019-04-04T06:13:52.576Z,952.90
2019-04-04T06:16:18.915Z,952.95
2019-04-04T06:18:45.243Z,952.90
2019-04-04T06:21:11.566Z,952.83
2019-04-04T06:23:37.909Z,952.93
2019-04-04T06:26:06.766Z,952.90
2019-04-04T06:28:30.609Z,952.91
2019-04-04T06:30:56.950Z,952.97
2019-04-04T06:33:23.267Z,953.01
2019-04-04T06:35:49.589Z,952.89
2019-04-04T06:38:15.891Z,952.94
2019-04-04T06:40:42.244Z,952.94
2019-04-04T06:43:11.513Z,952.95
2019-04-04T06:45:34.880Z,952.92
2019-04-04T06:48:01.217Z,952.84
2019-04-04T06:50:27.587Z,952.92
2019-04-04T06:52:56.417Z,952.92
2019-04-04T06:55:20.207Z,952.92
2019-04-04T06:57:48.012Z,952.94
2019-04-04T07:00:15.424Z,952.97
2019-04-04T07:02:39.201Z,952.89
2019-04-04T07:05:06.299Z,952.91
2019-04-04T07:07:31.837Z,952.88
2019-04-04T07:09:58.158Z,952.89
2019-04-04T07:12:28.255Z,952.92
2019-04-04T07:14:50.986Z,952.84
2019-04-04T07:17:17.307Z,952.88
2019-04-04T07:19:45.888Z,952.81
2019-04-04T07:22:09.997Z,952.84
2019-04-04T07:24:36.305Z,952.88
2019-04-04T07:27:02.611Z,952.89
2019-04-04T07:29:28.954Z,952.94
2019-04-04T07:31:55.259Z,952.92
2019-04-04T07:34:21.573Z,952.96
2019-04-04T07:36:49.133Z,952.92
2019-04-04T07:39:14.206Z,952.86
2019-04-04T07:41:44.559Z,952.88
2019-04-04T07:44:06.905Z,952.94
2019-04-04T07:46:33.220Z,952.96
2019-04-04T07:48:59.557Z,952.93
2019-04-04T07:51:25.897Z,952.91
2019-04-04T07:53:52.223Z,952.97
2019-04-04T07:56:18.529Z,952.94
2019-04-04T07:58:44.944Z,952.91
2019-04-04T08:01:11.247Z,952.96
2019-04-04T08:03:37.570Z,952.92
2019-04-04T08:06:03.914Z,952.96
2019-04-04T08:08:30.216Z,952.90
2019-04-04T08:10:56.526Z,952.94
2019-04-04T08:13:22.850Z,952.86
2019-04-04T08:15:49.210Z,952.89
2019-04-04T08:18:15.554Z,952.92
2019-04-04T08:20:41.868Z,952.95
2019-04-04T08:23:08.232Z,952.90
2019-04-04T08:25:34.540Z,952.94
2019-04-04T08:28:00.873Z,952.94
2019-04-04T08:30:27.210Z,952.89
2019-04-04T08:32:53.578Z,952.92
2019-04-04T08:35:19.881Z,952.92
2019-04-04T08:37:46.209Z,952.87
2019-04-04T08:40:12.518Z,952.85
2019-04-04T08:42:38.907Z,952.84
2019-04-04T08:45:05.232Z,952.88
2019-04-04T08:47:31.538Z,952.86
2019-04-04T08:49:57.852Z,952.86
2019-04-04T08:52:24.187Z,952.86
2019-04-04T08:54:50.510Z,952.59
2019-04-04T08:57:16.839Z,952.82
2019-04-04T08:59:43.174Z,952.77
2019-04-04T09:02:09.553Z,952.81
2019-04-04T09:04:35.986Z,952.74
2019-04-04T09:07:02.444Z,952.68
2019-04-04T09:09:28.768Z,952.68
2019-04-04T09:11:56.032Z,952.64
2019-04-04T09:14:22.435Z,952.62
2019-04-04T09:16:48.737Z,952.58
2019-04-04T09:19:15.063Z,952.56
2019-04-04T09:21:41.395Z,952.52
2019-04-04T09:24:07.739Z,952.51
2019-04-04T09:26:34.071Z,952.47
2019-04-04T09:29:00.639Z,952.45
2019-04-04T09:31:26.976Z,952.41
2019-04-04T09:33:53.334Z,952.48
2019-04-04T09:36:19.633Z,952.42
2019-04-04T09:38:45.941Z,952.34
2019-04-04T09:41:12.253Z,952.28
2019-04-04T09:43:38.602Z,952.28
2019-04-04T09:46:04.909Z,952.20
2019-04-04T09:48:31.268Z,952.12
2019-04-04T09:50:57.574Z,952.07
2019-04-04T09:53:23.921Z,952.09
2019-04-04T09:55:50.368Z,951.94
2019-04-04T09:58:16.682Z,951.96
2019-04-04T10:00:43.009Z,951.96
2019-04-04T10:03:09.328Z,951.95
2019-04-04T10:05:35.672Z,951.85
2019-04-04T10:08:01.994Z,951.86
2019-04-04T10:10:28.310Z,951.72
2019-04-04T10:12:54.631Z,951.78
2019-04-04T10:15:21.016Z,951.71
2019-04-04T10:17:49.500Z,951.74
2019-04-04T10:20:14.480Z,951.72
2019-04-04T10:22:40.831Z,951.71
2019-04-04T10:25:07.134Z,951.59
2019-04-04T10:27:33.498Z,951.57
2019-04-04T10:29:59.797Z,951.54
2019-04-04T10:32:26.129Z,951.46
2019-04-04T10:34:52.477Z,951.45
2019-04-04T10:37:18.813Z,951.43
2019-04-04T10:39:45.231Z,951.46
2019-04-04T10:42:11.462Z,951.46
2019-04-04T10:44:37.773Z,951.37
2019-04-04T10:47:04.087Z,951.36
2019-04-04T10:49:30.418Z,951.31
2019-04-04T10:51:56.724Z,951.38
2019-04-04T10:54:23.125Z,951.37
2019-04-04T10:56:49.478Z,951.37
2019-04-04T10:59:15.794Z,951.30
2019-04-04T11:01:42.110Z,951.24
2019-04-04T11:04:08.458Z,951.32
2019-04-04T11:06:34.779Z,951.29
2019-04-04T11:09:01.102Z,951.29
2019-04-04T11:11:27.472Z,951.26
2019-04-04T11:13:53.779Z,951.20
2019-04-04T11:16:29.574Z,951.13
2019-04-04T11:18:46.415Z,951.03
2019-04-04T11:21:12.771Z,950.99
2019-04-04T11:23:39.122Z,951.01
2019-04-04T11:26:05.458Z,950.92
2019-04-04T11:28:31.766Z,950.85
2019-04-04T11:30:58.105Z,950.82
2019-04-04T11:33:24.449Z,950.81
2019-04-04T11:35:50.782Z,950.73
2019-04-04T11:38:17.136Z,950.71
2019-04-04T11:40:43.467Z,950.58
2019-04-04T11:43:09.784Z,950.62
2019-04-04T11:45:36.136Z,950.68
2019-04-04T11:48:02.482Z,950.59
2019-04-04T11:50:28.816Z,950.49
2019-04-04T11:52:55.130Z,950.51
2019-04-04T11:55:21.479Z,950.44
2019-04-04T11:57:47.825Z,950.43
2019-04-04T12:00:14.244Z,950.31
2019-04-04T12:02:40.547Z,950.22
2019-04-04T12:05:06.894Z,950.26
2019-04-04T12:07:33.215Z,950.18
2019-04-04T12:10:07.165Z,950.16
2019-04-04T12:12:25.830Z,950.05
2019-04-04T12:14:52.260Z,949.94
2019-04-04T12:17:18.603Z,949.93
2019-04-04T12:19:44.937Z,949.86
2019-04-04T12:22:11.980Z,949.86
2019-04-04T12:24:37.572Z,949.83
2019-04-04T12:27:03.883Z,949.72
2019-04-04T12:29:30.209Z,949.73
2019-04-04T12:31:56.573Z,949.70
2019-04-04T12:34:22.899Z,949.68
2019-04-04T12:36:49.223Z,949.68
2019-04-04T12:39:15.538Z,949.59
2019-04-04T12:41:41.876Z,949.57
2019-04-04T12:44:08.223Z,949.44
2019-04-04T12:46:34.543Z,949.51
2019-04-04T12:49:00.880Z,949.47
2019-04-04T12:51:27.197Z,949.51
2019-04-04T12:53:53.514Z,949.53
2019-04-04T12:56:19.822Z,949.48
2019-04-04T12:58:46.128Z,949.47
2019-04-04T13:01:12.460Z,949.51
2019-04-04T13:03:38.765Z,949.42
2019-04-04T13:06:05.142Z,949.45
2019-04-04T13:08:31.456Z,949.43
2019-04-04T13:10:57.816Z,949.36
2019-04-04T13:13:24.129Z,949.37
2019-04-04T13:15:50.428Z,949.36
2019-04-04T13:18:16.753Z,949.37
2019-04-04T13:20:43.063Z,949.36
2019-04-04T13:23:09.374Z,949.34
2019-04-04T13:25:35.686Z,949.39
2019-04-04T13:28:02.024Z,949.28
2019-04-04T13:30:28.346Z,949.29
2019-04-04T13:32:54.690Z,949.20
2019-04-04T13:35:21.030Z,949.24
2019-04-04T13:37:47.370Z,949.24
2019-04-04T13:40:13.704Z,949.20
2019-04-04T13:42:40.031Z,949.14
2019-04-04T13:45:06.352Z,949.09
2019-04-04T13:47:32.711Z,949.11
2019-04-04T13:49:59.005Z,949.10
2019-04-04T13:52:26.440Z,949.08
2019-04-04T13:54:51.639Z,949.07
2019-04-04T13:57:18.054Z,949.05
2019-04-04T13:59:44.394Z,949.09
2019-04-04T14:02:10.725Z,949.09
2019-04-04T14:04:37.031Z,949.01
2019-04-04T14:07:03.385Z,948.89
2019-04-04T14:09:29.680Z,948.95
2019-04-04T14:11:56.044Z,948.96
2019-04-04T14:14:22.368Z,948.86
2019-04-04T14:16:48.687Z,948.77
2019-04-04T14:19:15.020Z,948.87
2019-04-04T14:21:41.367Z,948.83
2019-04-04T14:24:14.044Z,948.76
2019-04-04T14:26:34.074Z,948.85
2019-04-04T14:29:03.589Z,948.76
2019-04-04T14:31:26.709Z,948.66
2019-04-04T14:33:53.059Z,948.80
2019-04-04T14:36:19.368Z,948.89
2019-04-04T14:38:45.734Z,948.73
2019-04-04T14:41:12.068Z,948.84
2019-04-04T14:43:38.354Z,948.89
2019-04-04T14:46:04.697Z,948.86
2019-04-04T14:48:31.035Z,948.90
2019-04-04T14:50:57.358Z,948.87
2019-04-04T14:53:24.114Z,948.93
2019-04-04T14:55:50.011Z,948.77
2019-04-04T14:58:16.317Z,948.67
2019-04-04T15:00:42.763Z,948.76
2019-04-04T15:03:09.203Z,948.65
2019-04-04T15:05:35.515Z,948.81
2019-04-04T15:08:01.838Z,948.81
2019-04-04T15:10:28.293Z,948.81
2019-04-04T15:12:54.611Z,948.83
2019-04-04T15:15:20.943Z,948.77
2019-04-04T15:17:47.276Z,948.77
2019-04-04T15:20:13.573Z,948.77
2019-04-04T15:22:39.947Z,948.71
2019-04-04T15:25:06.319Z,948.67
2019-04-04T15:27:32.638Z,948.78
2019-04-04T15:29:59.326Z,948.73
2019-04-04T15:32:25.694Z,948.84
2019-04-04T15:34:52.031Z,948.96
2019-04-04T15:37:18.337Z,948.71
2019-04-04T15:39:44.701Z,948.81
2019-04-04T15:42:11.016Z,948.79
2019-04-04T15:44:37.364Z,948.85
2019-04-04T15:47:03.770Z,948.96
2019-04-04T15:49:30.095Z,948.77
2019-04-04T15:51:56.408Z,948.75
2019-04-04T15:54:22.723Z,948.86
2019-04-04T15:56:49.094Z,948.80
2019-04-04T15:59:15.444Z,948.82
2019-04-04T16:01:41.822Z,948.89
2019-04-04T16:04:08.162Z,948.76
2019-04-04T16:06:34.508Z,948.87
2019-04-04T16:09:00.860Z,948.84
2019-04-04T16:11:27.190Z,948.77
2019-04-04T16:13:53.578Z,948.89
2019-04-04T16:16:19.904Z,948.96
2019-04-04T16:18:46.229Z,948.96
2019-04-04T16:21:12.606Z,948.93
2019-04-04T16:23:38.955Z,948.90
2019-04-04T16:26:05.263Z,949.00
2019-04-04T16:28:31.701Z,949.00
2019-04-04T16:30:58.137Z,948.96
2019-04-04T16:33:26.509Z,948.97
2019-04-04T16:35:50.772Z,949.00
2019-04-04T16:38:17.117Z,949.04
2019-04-04T16:40:43.564Z,948.98
2019-04-04T16:43:09.873Z,949.01
2019-04-04T16:45:36.204Z,948.97
2019-04-04T16:48:02.522Z,949.00
2019-04-04T16:50:28.840Z,948.97
2019-04-04T16:52:55.216Z,948.90
2019-04-04T16:55:21.542Z,948.92
2019-04-04T16:57:47.854Z,948.92
2019-04-04T17:00:14.186Z,948.95
2019-04-04T17:02:40.504Z,949.06
2019-04-04T17:05:06.819Z,949.01
2019-04-04T17:07:33.210Z,949.02
2019-04-04T17:09:59.519Z,949.12
2019-04-04T17:12:25.832Z,949.11
2019-04-04T17:14:52.177Z,949.14
2019-04-04T17:17:18.568Z,949.07
2019-04-04T17:19:44.894Z,949.14
2019-04-04T17:22:11.194Z,949.15
2019-04-04T17:24:37.506Z,949.22
2019-04-04T17:27:03.842Z,949.22
2019-04-04T17:29:30.160Z,949.22
2019-04-04T17:31:56.466Z,949.34
2019-04-04T17:34:22.811Z,949.36
2019-04-04T17:36:49.253Z,949.36
2019-04-04T17:39:15.973Z,949.48
2019-04-04T17:41:41.822Z,949.47
2019-04-04T17:44:08.150Z,949.57
2019-04-04T17:46:34.513Z,949.61
2019-04-04T17:49:01.066Z,949.71
2019-04-04T17:51:27.353Z,949.70
2019-04-04T17:53:53.693Z,949.62
2019-04-04T17:56:20.193Z,949.64
2019-04-04T17:58:46.147Z,949.68
2019-04-04T18:01:12.454Z,949.76
2019-04-04T18:03:38.787Z,949.79
2019-04-04T18:06:05.135Z,949.77
2019-04-04T18:08:31.441Z,949.84
2019-04-04T18:10:57.786Z,949.87
2019-04-04T18:13:24.091Z,950.02
2019-04-04T18:15:50.423Z,950.01
2019-04-04T18:18:16.725Z,949.95
2019-04-04T18:20:43.091Z,950.03
2019-04-04T18:23:09.461Z,949.99
2019-04-04T18:25:35.784Z,949.98
2019-04-04T18:28:02.100Z,950.01
2019-04-04T18:30:28.457Z,950.02
2019-04-04T18:32:54.798Z,950.09
2019-04-04T18:35:21.150Z,950.07
2019-04-04T18:37:47.476Z,950.03
2019-04-04T18:40:13.881Z,950.14
2019-04-04T18:42:52.197Z,950.11
2019-04-04T18:45:06.571Z,950.19
2019-04-04T18:47:32.898Z,950.14
2019-04-04T18:49:59.205Z,950.15
2019-04-04T18:52:25.625Z,950.25
2019-04-04T18:54:52.071Z,950.16
2019-04-04T18:57:18.381Z,950.24
2019-04-04T18:59:44.704Z,950.16
2019-04-04T19:02:11.030Z,950.23
2019-04-04T19:04:37.531Z,950.22
2019-04-04T19:07:06.690Z,950.24
2019-04-04T19:09:33.120Z,950.25
2019-04-04T19:11:59.463Z,950.38
2019-04-04T19:14:25.818Z,950.28
2019-04-04T19:16:52.225Z,950.33
2019-04-04T19:19:19.949Z,950.28
2019-04-04T19:21:44.861Z,950.23
2019-04-04T19:24:11.170Z,950.28
2019-04-04T19:26:37.537Z,950.05
2019-04-04T19:29:03.980Z,950.20
2019-04-04T19:31:30.372Z,950.20
2019-04-04T19:33:56.682Z,950.27
2019-04-04T19:36:22.989Z,950.22
2019-04-04T19:38:51.428Z,950.29
2019-04-04T19:41:15.672Z,950.27
2019-04-04T19:43:42.037Z,950.28
2019-04-04T19:46:08.359Z,950.32
2019-04-04T19:48:34.682Z,950.24
2019-04-04T19:51:01.053Z,950.26
2019-04-04T19:53:27.495Z,950.19
2019-04-04T19:55:53.928Z,950.20
2019-04-04T19:58:20.233Z,950.19
2019-04-04T20:00:46.572Z,950.12
2019-04-04T20:03:12.931Z,950.18
2019-04-04T20:05:39.240Z,950.20
2019-04-04T20:08:05.576Z,950.15
2019-04-04T20:10:31.916Z,950.19
2019-04-04T20:12:58.223Z,950.24
2019-04-04T20:15:24.573Z,950.15
2019-04-04T20:17:50.921Z,950.28
2019-04-04T20:20:17.226Z,950.23
2019-04-04T20:22:43.605Z,950.25
2019-04-04T20:25:09.922Z,950.22
2019-04-04T20:27:36.232Z,950.32
2019-04-04T20:30:02.604Z,950.27
2019-04-04T20:32:28.962Z,950.28
2019-04-04T20:34:55.285Z,950.30
2019-04-04T20:37:21.606Z,950.28
2019-04-04T20:39:47.945Z,950.20
2019-04-04T20:42:14.277Z,950.34
2019-04-04T20:44:40.609Z,950.37
2019-04-04T20:47:06.975Z,950.44
2019-04-04T20:49:33.347Z,950.42
2019-04-04T20:51:59.634Z,950.49
2019-04-04T20:54:25.954Z,950.45
2019-04-04T20:56:52.294Z,950.52
2019-04-04T20:59:18.690Z,950.48
2019-04-04T21:01:45.019Z,950.57
2019-04-04T21:04:11.368Z,950.56
2019-04-04T21:06:37.812Z,950.53
2019-04-04T21:09:04.118Z,950.43
2019-04-04T21:11:31.581Z,950.45
2019-04-04T21:13:57.907Z,950.37
2019-04-04T21:16:24.232Z,950.46
2019-04-04T21:18:50.556Z,950.46
2019-04-04T21:21:16.938Z,950.44
2019-04-04T21:23:44.462Z,950.42
2019-04-04T21:26:09.583Z,950.45
2019-04-04T21:28:35.889Z,950.54
2019-04-04T21:31:02.273Z,950.49
2019-04-04T21:33:28.633Z,950.53
2019-04-04T21:35:54.901Z,950.62
2019-04-04T21:38:21.231Z,950.58
2019-04-04T21:40:47.555Z,950.61
2019-04-04T21:43:13.908Z,950.64
2019-04-04T21:45:40.207Z,950.59
2019-04-04T21:48:06.538Z,950.69
2019-04-04T21:50:32.869Z,950.51
2019-04-04T21:52:59.204Z,950.52
2019-04-04T21:55:25.509Z,950.58
2019-04-04T21:57:51.807Z,950.57
2019-04-04T22:00:18.128Z,950.64
2019-04-04T22:02:44.458Z,950.63
2019-04-04T22:05:10.767Z,950.66
2019-04-04T22:07:37.086Z,950.67
2019-04-04T22:10:03.422Z,950.64
2019-04-04T22:12:29.740Z,950.69
2019-04-04T22:14:56.041Z,950.62
2019-04-04T22:17:22.353Z,950.62
2019-04-04T22:19:48.663Z,950.61
2019-04-04T22:22:15.000Z,950.66
2019-04-04T22:24:41.302Z,950.65
2019-04-04T22:27:07.779Z,950.56
2019-04-04T22:29:34.087Z,950.64
2019-04-04T22:32:00.434Z,950.60
2019-04-04T22:34:26.751Z,950.67
2019-04-04T22:36:53.066Z,950.68
2019-04-04T22:39:19.378Z,950.67
2019-04-04T22:41:45.714Z,950.75
2019-04-04T22:44:12.034Z,950.75
2019-04-04T22:46:38.355Z,950.72
2019-04-04T22:49:04.679Z,950.83
2019-04-04T22:51:30.985Z,950.77
2019-04-04T22:53:57.340Z,950.70
2019-04-04T22:56:23.645Z,950.71
2019-04-04T22:58:49.965Z,950.73
2019-04-04T23:01:16.297Z,950.71
2019-04-04T23:03:42.625Z,950.72
2019-04-04T23:06:08.958Z,950.69
2019-04-04T23:08:35.283Z,950.62
2019-04-04T23:11:01.643Z,950.67
2019-04-04T23:13:27.964Z,950.70
2019-04-04T23:15:54.284Z,950.59
2019-04-04T23:18:20.598Z,950.63
2019-04-04T23:20:46.900Z,950.67
2019-04-04T23:23:13.226Z,950.68
2019-04-04T23:25:39.534Z,950.72
2019-04-04T23:28:05.866Z,950.66
2019-04-04T23:30:32.171Z,950.70
2019-04-04T23:32:58.494Z,950.70
2019-04-04T23:35:24.803Z,950.60
2019-04-04T23:37:51.127Z,950.63
2019-04-04T23:40:17.464Z,950.61
2019-04-04T23:42:43.769Z,950.69
2019-04-04T23:45:10.089Z,950.61
2019-04-04T23:47:42.529Z,950.60
2019-04-04T23:50:02.732Z,950.61
2019-04-04T23:52:29.044Z,950.53
2019-04-04T23:54:55.360Z,950.50
2019-04-04T23:57:21.693Z,950.48
2019-04-04T23:59:48.043Z,950.50
